EST,Max TemperatureF,Mean TemperatureF,Min TemperatureF,Max Dew PointF,MeanDew PointF,Min DewpointF,Max Humidity, Mean Humidity, Min Humidity, Max Sea Level PressureIn, Mean Sea Level PressureIn, Min Sea Level PressureIn, Max VisibilityMiles, Mean VisibilityMiles, Min VisibilityMiles, Max Wind SpeedMPH, Mean Wind SpeedMPH, Max Gust SpeedMPH,PrecipitationIn, CloudCover, Events, WindDirDegrees
2013-11-1,52,49,45,48,42,37,93,80,66,29.73,29.57,29.33,10,10,5,30,11,37,0.08,8,Rain,258
2013-11-2,49,43,37,43,40,34,92,79,65,30.12,29.90,29.72,10,9,6,18,8,24,0.08,7,Rain,303
2013-11-3,50,45,39,38,36,34,92,74,56,30.36,30.28,30.13,10,10,10,18,8,23,0.00,5,,104
2013-11-4,53,46,39,40,35,33,79,66,52,30.37,30.30,30.22,10,10,10,23,13,26,0.00,2,,147
2013-11-5,56,53,49,47,43,41,83,72,61,30.34,30.26,30.09,10,10,9,16,9,23,T,7,,178
2013-11-6,59,51,42,54,46,35,93,75,57,30.10,29.96,29.84,10,8,2,25,15,32,0.66,8,Rain,242
2013-11-7,47,40,33,34,29,26,89,69,49,30.24,30.19,30.12,10,10,9,18,10,25,0.01,4,Rain,282
2013-11-8,47,38,28,31,29,26,92,71,49,30.35,30.24,30.11,10,9,6,14,7,20,T,2,Rain,216
2013-11-9,59,52,45,39,34,27,62,53,44,30.08,29.97,29.89,10,10,10,28,19,38,0.00,2,,242
2013-11-10,47,39,30,31,29,24,82,66,49,30.34,30.24,30.05,10,10,5,31,13,40,0.00,5,,292
2013-11-11,46,38,29,39,30,21,92,75,58,30.42,30.21,30.10,10,7,2,23,12,28,0.22,8,Rain-Snow,332
2013-11-12,32,27,21,27,22,15,92,78,63,30.66,30.60,30.43,10,6,0,16,6,20,0.13,6,Fog-Snow,304
2013-11-13,36,27,18,20,16,13,84,66,47,30.61,30.47,30.24,10,10,10,24,13,30,0.00,0,,220
2013-11-14,51,41,30,23,21,18,63,48,32,30.24,30.11,30.02,10,10,10,25,16,31,0.00,0,,216
2013-11-15,50,45,39,32,27,23,62,52,42,30.06,30.03,30.00,10,10,7,17,10,24,T,4,,206
2013-11-16,62,52,42,55,45,32,86,74,62,30.02,29.89,29.69,10,8,5,24,14,32,0.06,7,Rain,165
2013-11-17,65,55,45,61,54,35,90,78,65,29.69,29.48,29.25,10,9,0,51,21,68,0.69,8,Fog-Rain-Thunderstorm,207
2013-11-18,45,40,34,36,30,24,82,71,59,30.23,29.95,29.70,10,10,10,26,14,35,0.00,7,,289
2013-11-19,45,39,33,26,25,24,70,58,45,30.38,30.32,30.23,10,10,10,14,6,18,0.00,4,,345
2013-11-20,44,37,29,36,27,23,78,66,53,30.37,30.29,30.18,10,10,6,22,11,25,0.05,2,Rain,134
2013-11-21,49,45,40,45,41,35,93,79,65,30.23,30.19,30.17,10,6,2,16,7,20,0.37,8,Rain,177
2013-11-22,46,36,26,45,36,22,93,82,70,30.45,30.29,30.17,10,6,1,25,12,32,0.03,7,Rain,318
2013-11-23,31,26,21,25,17,10,88,72,55,30.63,30.50,30.39,10,5,0,28,14,35,T,7,Snow,328
2013-11-24,26,23,19,18,11,0,77,56,35,30.69,30.61,30.46,10,8,1,18,9,22,T,5,Snow,295
2013-11-25,31,25,19,25,17,5,85,67,49,30.44,30.23,30.12,10,8,2,17,13,22,0.02,6,Snow,226
2013-11-26,33,30,26,27,23,17,85,72,58,30.12,30.06,29.97,10,8,1,23,9,30,0.04,8,Snow,301
2013-11-27,29,24,19,23,19,16,88,76,63,30.27,30.09,30.02,10,3,0,23,6,29,0.19,8,Fog-Snow,356
2013-11-28,32,26,19,20,16,13,81,67,53,30.47,30.30,30.23,10,9,3,15,7,17,T,8,Snow,213
2013-11-29,36,31,26,21,19,17,75,61,47,30.66,30.58,30.48,10,10,10,13,5,17,0.00,4,,162
2013-11-30,47,37,27,29,25,20,75,62,49,30.48,30.27,30.10,10,10,9,15,9,20,0.00,1,,189